KGSB/GSB METAR and TAF weather

Enter ICAO airport designator
Station Type Date Time Source
KGSB METAR 2022/12/08 12:55 UTC NOAA

KGSB 081255Z 35006KT 10SM BKN010 OVC013 17/15 A3019 RMK AO2A SLP227 T01650154 $


Station Type Date Time Source
KGSB Decoded METAR 2022/12/08 12:55 UTC NOAA

Seymour-Johnson Air Force Base, NC, United States (KGSB) 35-20N 077-58W
Dec 08, 2022 - 07:55 AM EST / 2022.12.08 1255 UTC
Wind: from the N (350 degrees) at 7 MPH (6 KT):0
Visibility: 10 mile(s):0
Sky conditions: overcast
Temperature: 61.7 F (16.5 C)
Dew Point: 59.7 F (15.4 C)
Relative Humidity: 93%
Pressure (altimeter): 30.19 in. Hg (1022 hPa)
ob: KGSB 081255Z 35006KT 10SM BKN010 OVC013 17/15 A3019 RMK AO2A SLP227 T01650154
cycle: 13

Station Type Date Time Source
KGSB TAF 2022/12/08 13:07 UTC NOAA

TAF KGSB 081300Z 0813/0919 02009KT 9999 OVC008 QNH3013INS
TEMPO 0813/0817 BKN010 OVC015
BECMG 0816/0817 03010KT 9999 BKN015 BKN025 BKN100 QNH3011INS
BECMG 0902/0903 04009KT 9999 SCT015 BKN030 QNH3009INS
TEMPO 0906/0910 02010G15KT 6000 -RA BR BKN015 BKN025 TX19/0818Z TN11/0912Z

Example: see airport list